METAR Data
IDs: Format: Raw Decoded Include TAF

Data at: 1331 UTC 14 Dec 2019

PACD 141253Z AUTO 13024G33KT 10SM FEW025 BKN035 OVC070 06/03 A2870 RMK AO2 PK WND 14051/1154 RAE49 SLP719 P0006 T00560028 TSNO $
PACD 141229Z AUTO 12022G30KT 9SM -RA FEW026 OVC031 04/02 A2872 RMK AO2 PK WND 14051/1154 PRESFR P0006 T00440022 TSNO $
PACD 141153Z AUTO 12043G53KT 5SM RA BR OVC026 06/03 A2874 RMK AO2 PK WND 12053/1152 SLP732 P0009 60010 70010 T00560033 10061 20039 58039 TSNO
PACD 141053Z AUTO 11037G46KT 5SM RA OVC025 06/03 A2876 RMK AO2 PK WND 12053/1039 PRESFR SLP738 P0000 T00560028 TSNO
PACD 141038Z AUTO 12037G50KT 6SM -RA OVC029 06/03 A2879 RMK AO2 PK WND 12050/1038 P0000 T00560028 TSNO
PACD 141029Z AUTO 12035G46KT 8SM -RA OVC031 06/03 A2880 RMK AO2 PK WND 12046/1015 P0000 T00560028 TSNO
PACD 141011Z AUTO 12034G45KT 8SM -RA BKN029 OVC037 06/02 A2881 RMK AO2 PK WND 12045/1011 PRESFR P0000 T00560022 TSNO
PACD 140953Z AUTO 12032G43KT 9SM -RA BKN030 OVC035 06/02 A2885 RMK AO2 PK WND 12046/0913 SLP770 P0001 T00560022 TSNO
PACD 140949Z AUTO 12029G41KT 9SM -RA FEW025 BKN030 OVC036 06/02 A2885 RMK AO2 PK WND 12046/0913 P0001 TSNO
PACD 140853Z AUTO 10023G35KT 10SM -RA BKN024 OVC029 05/02 A2891 RMK AO2 PK WND 10036/0810 SLP790 P0000 60000 T00500017 400501050 58066 TSNO
PACD 140811Z AUTO 10023G36KT 10SM -RA BKN028 OVC035 05/01 A2895 RMK AO2 PK WND 10036/0810 PRESFR P0000 T00500011 TSNO
PACD 140753Z AUTO 10019G33KT 10SM -RA SCT027 OVC035 05/01 A2898 RMK AO2 PK WND 12039/0654 RAE02B37 PRESFR SLP815 P0000 T00500011 TSNO
PACD 140653Z AUTO 12034G41KT 10SM -RA FEW022 OVC048 04/01 A2906 RMK AO2 PK WND 14042/0632 RAB27 SLP843 P0000 T00390006 TSNO
PACD 140553Z AUTO 12030G40KT 10SM FEW027 FEW034 FEW120 04/M01 A2910 RMK AO2 PK WND 12040/0552 SLP856 60000 T00441006 10044 20022 58046 TSNO
PACD 140453Z AUTO 12023G32KT 10SM FEW030 SCT035 BKN100 04/M02 A2916 RMK AO2 PK WND 14034/0440 SLP877 T00391017 TSNO
PACD 140353Z AUTO 13020G28KT 10SM FEW038 SCT100 04/M02 A2920 RMK AO2 PK WND 13030/0305 SLP889 T00391017 TSNO
PACD 140253Z AUTO 14023G28KT 10SM BKN035 BKN100 03/M02 A2924 RMK AO2 PK WND 14031/0226 SLP902 60000 T00331022 56037 TSNO
PACD 140153Z 14017G27KT 10SM BKN044 03/M02 A2926 RMK AO2 PK WND 13027/0144 SNE22 SLP911 P0000 T00281022
PACD 140053Z 15015KT 9SM -SN FEW027 BKN032 OVC048 03/M02 A2931 RMK AO2 SNB50 SLP925 P0000 T00281017
PACD 132353Z 14011KT 10SM SCT048 03/M02 A2935 RMK AO2 SLP940 T00281022 10033 21050 58023
PACD 132253Z COR 15009KT 10SM SCT050 03/M02 A2939 RMK AO2 SLP953 T00281017
PACD 132153Z 15004KT 10SM FEW028 SCT035 BKN044 01/M03 A2941 RMK AO2 SLP961 T00111033
PACD 132053Z 15007KT 10SM FEW035 M01/M04 A2942 RMK AO2 SLP963 T10061044 52001
PACD 131953Z 15003KT 10SM FEW040 M04/M07 A2941 RMK AO2 SLP961 T10391072
PACD 131853Z 13008KT 10SM CLR M03/M07 A2942 RMK AO2 SLP964 T10331072
PACD 131753Z 18008KT 10SM CLR M04/M08 A2941 RMK AO2 SLP962 T10441078 10000 21044 53000
PACD 131653Z AUTO 22006KT 10SM CLR M02/M06 A2941
PACD 131553Z AUTO 21008KT 10SM CLR M01/M04 A2941 RMK AO2 SLP961 T10111044 TSNO
PACD 131453Z AUTO 26004KT 10SM BKN036 M01/M04 A2941 RMK AO2 SLP961 T10061039 50004 TSNO
PACD 131353Z AUTO 26005KT 10SM CLR M02/M04 A2942 RMK AO2 SLP962 T10171044 TSNO
PACD 131253Z AUTO 25008KT 10SM FEW039 BKN050 00/M02 A2941 RMK AO2 SLP962 T00001022 TSNO
PACD 131153Z AUTO 24011KT 10SM CLR M01/M03 A2940 RMK AO2 SLP958 60000 T10061028 10017 21006 52010 TSNO
PACD 131053Z AUTO 25009KT 10SM SCT038 OVC050 01/M02 A2939 RMK AO2 SLP954 T00061022 TSNO
PACD 130953Z AUTO 25016KT 10SM OVC049 01/M03 A2938 RMK AO2 SNB0858E07 SLP951 P0000 T00061028 TSNO
PACD 130853Z AUTO 25013KT 10SM FEW030 BKN050 OVC100 01/M03 A2937 RMK AO2 UPB08E38SNE08B09E11B26E36 SLP947 P0000 60000 T00111028 400390006 53008 TSNO
PACD 130753Z AUTO 25014KT 6SM -SN BKN035 OVC090 01/M02 A2936 RMK AO2 UPB48E51SNB51 SLP944 P0000 T00111022 TSNO
PACD 130653Z AUTO 25012KT 10SM SCT040 OVC090 01/M03 A2935 RMK AO2 SLP939 T00111033 TSNO
PACD 130553Z AUTO 27012KT 10SM OVC095 02/M04 A2935 RMK AO2 SLP939 T00171039 10039 20017 53003 TSNO
PACD 130453Z AUTO 28017KT 10SM OVC095 02/M04 A2934 RMK AO2 SLP938 T00221039 TSNO
PACD 130353Z AUTO 29016KT 10SM FEW045 OVC095 02/M04 A2934 RMK AO2 SLP936 T00221039 TSNO
PACD 130253Z AUTO 28016KT 10SM BKN048 OVC095 02/M04 A2934 RMK AO2 SLP935 T00221044 53007 TSNO
PACD 130153Z 28017KT 10SM SCT034 SCT049 BKN080 03/M03 A2933 RMK AO2 SLP932 T00281033